createdAt,value
2018-03-19T00:02:06.087Z,-3.19
2018-03-19T00:08:10.645Z,-3.22
2018-03-19T00:14:15.197Z,-3.19
2018-03-19T00:20:19.906Z,-3.32
2018-03-19T00:26:24.601Z,-3.29
2018-03-19T00:32:29.112Z,-3.36
2018-03-19T00:38:34.489Z,-3.45
2018-03-19T00:44:39.205Z,-3.41
2018-03-19T00:50:43.917Z,-3.39
2018-03-19T00:56:48.609Z,-3.49
2018-03-19T01:02:53.183Z,-3.58
2018-03-19T01:08:57.745Z,-3.59
2018-03-19T01:15:02.318Z,-3.58
2018-03-19T01:21:06.846Z,-3.57
2018-03-19T01:27:12.905Z,-3.65
2018-03-19T01:33:17.433Z,-3.77
2018-03-19T01:39:22.145Z,-3.74
2018-03-19T01:45:27.607Z,-3.73
2018-03-19T01:51:32.157Z,-3.88
2018-03-19T01:57:36.822Z,-3.89
2018-03-19T02:03:42.139Z,-3.92
2018-03-19T02:09:47.014Z,-3.93
2018-03-19T02:15:51.727Z,-3.89
2018-03-19T02:21:56.311Z,-3.99
2018-03-19T02:28:00.856Z,-4.00
2018-03-19T02:34:05.352Z,-4.09
2018-03-19T02:40:09.904Z,-3.98
2018-03-19T02:46:14.441Z,-4.18
2018-03-19T02:52:20.655Z,-4.15
2018-03-19T02:58:25.242Z,-4.23
2018-03-19T03:04:30.590Z,-4.36
2018-03-19T03:10:35.203Z,-4.34
2018-03-19T03:16:40.581Z,-4.44
2018-03-19T03:22:45.147Z,-4.30
2018-03-19T03:28:50.230Z,-4.41
2018-03-19T03:34:54.771Z,-4.39
2018-03-19T03:40:59.292Z,-4.44
2018-03-19T03:47:03.896Z,-4.46
2018-03-19T03:53:08.408Z,-4.52
2018-03-19T03:59:13.731Z,-4.66
2018-03-19T04:05:18.990Z,-4.71
2018-03-19T04:11:24.380Z,-4.93
2018-03-19T04:17:28.910Z,-5.11
2018-03-19T04:23:34.210Z,-5.19
2018-03-19T04:29:38.768Z,-5.29
2018-03-19T04:35:43.571Z,-5.51
2018-03-19T04:41:48.640Z,-5.53
2018-03-19T04:47:54.245Z,-5.60
2018-03-19T04:53:58.843Z,-5.78
2018-03-19T05:00:03.493Z,-5.75
2018-03-19T05:06:08.838Z,-5.74
2018-03-19T05:12:13.431Z,-5.88
2018-03-19T05:18:18.626Z,-5.91
2018-03-19T05:24:23.172Z,-5.93
2018-03-19T05:30:28.655Z,-5.80
2018-03-19T05:36:33.222Z,-5.79
2018-03-19T05:42:37.893Z,-5.71
2018-03-19T05:48:42.445Z,-5.76
2018-03-19T05:54:47.584Z,-5.86
2018-03-19T06:00:52.401Z,-5.70
2018-03-19T06:06:57.028Z,-5.65
2018-03-19T06:13:01.682Z,-5.49
2018-03-19T06:19:07.244Z,-5.35
2018-03-19T06:25:12.541Z,-5.23
2018-03-19T06:31:17.872Z,-5.06
2018-03-19T06:37:22.464Z,-4.97
2018-03-19T06:43:27.135Z,-4.85
2018-03-19T06:49:32.048Z,-4.53
2018-03-19T06:55:36.680Z,-4.40
2018-03-19T07:01:41.380Z,-4.20
2018-03-19T07:07:45.988Z,-3.93
2018-03-19T07:13:50.857Z,2.18
2018-03-19T07:19:55.384Z,7.69
2018-03-19T07:26:00.879Z,10.63
2018-03-19T07:32:05.472Z,11.60
2018-03-19T07:38:10.760Z,11.27
2018-03-19T07:44:15.546Z,7.02
2018-03-19T07:50:21.247Z,3.30
2018-03-19T07:56:25.755Z,1.83
2018-03-19T08:02:31.001Z,1.01
2018-03-19T08:08:35.666Z,0.81
2018-03-19T08:14:40.397Z,1.19
2018-03-19T08:20:45.032Z,2.08
2018-03-19T08:39:50.238Z,6.32
2018-03-19T08:45:55.228Z,7.02
2018-03-19T08:51:59.770Z,9.58
2018-03-19T08:58:04.410Z,11.48
2018-03-19T09:04:09.677Z,13.14
2018-03-19T09:10:15.019Z,14.21
2018-03-19T09:16:19.559Z,14.34
2018-03-19T09:22:24.832Z,14.27
2018-03-19T09:28:29.449Z,12.94
2018-03-19T09:34:34.118Z,14.20
2018-03-19T09:40:39.218Z,16.90
2018-03-19T09:46:43.749Z,16.42
2018-03-19T09:52:48.463Z,16.05
2018-03-19T09:58:53.056Z,15.34
2018-03-19T10:04:57.712Z,14.76
2018-03-19T10:11:02.351Z,14.33
2018-03-19T10:17:06.960Z,15.04
2018-03-19T10:23:11.627Z,17.62
2018-03-19T10:29:16.305Z,17.42
2018-03-19T10:35:21.633Z,17.30
2018-03-19T10:41:26.351Z,14.64
2018-03-19T10:47:30.856Z,16.14
2018-03-19T10:53:35.414Z,16.29
2018-03-19T10:59:39.941Z,13.78
2018-03-19T11:05:50.524Z,12.16
2018-03-19T11:11:55.170Z,13.00
2018-03-19T11:17:59.773Z,15.18
2018-03-19T11:24:04.267Z,15.28
2018-03-19T11:30:08.888Z,14.65
2018-03-19T11:36:13.657Z,14.05
2018-03-19T11:42:18.770Z,16.23
2018-03-19T11:48:23.495Z,13.58
2018-03-19T11:54:28.232Z,14.69
2018-03-19T12:00:33.529Z,14.31
2018-03-19T12:06:38.883Z,15.19
2018-03-19T12:12:44.321Z,16.01
2018-03-19T12:18:48.849Z,16.78
2018-03-19T12:24:53.468Z,14.94
2018-03-19T12:30:58.059Z,14.78
2018-03-19T12:37:02.717Z,12.69
2018-03-19T12:43:07.462Z,11.58
2018-03-19T12:49:12.024Z,11.25
2018-03-19T12:55:17.427Z,11.36
2018-03-19T13:01:22.842Z,11.15
2018-03-19T13:07:27.664Z,10.90
2018-03-19T13:13:32.155Z,11.18
2018-03-19T13:19:36.761Z,9.25
2018-03-19T13:25:42.167Z,11.45
2018-03-19T13:31:48.495Z,13.33
2018-03-19T13:37:53.016Z,11.92
2018-03-19T13:43:57.534Z,12.05
2018-03-19T13:50:02.258Z,11.97
2018-03-19T13:56:06.764Z,13.30
2018-03-19T14:02:11.319Z,12.57
2018-03-19T14:08:16.535Z,13.18
2018-03-19T14:14:21.614Z,12.47
2018-03-19T14:20:26.125Z,12.41
2018-03-19T14:26:30.652Z,11.56
2018-03-19T14:32:35.136Z,11.11
2018-03-19T14:38:40.359Z,9.93
2018-03-19T14:44:44.901Z,10.11
2018-03-19T14:50:49.984Z,10.82
2018-03-19T14:56:54.529Z,12.65
2018-03-19T15:02:59.367Z,11.74
2018-03-19T15:09:03.929Z,12.13
2018-03-19T15:15:08.423Z,13.75
2018-03-19T15:21:12.915Z,15.18
2018-03-19T15:27:17.578Z,12.97
2018-03-19T15:33:22.144Z,11.85
2018-03-19T15:39:26.753Z,12.78
2018-03-19T15:45:31.257Z,14.40
2018-03-19T15:51:35.875Z,14.37
2018-03-19T15:57:40.354Z,12.60
2018-03-19T16:03:45.004Z,13.35
2018-03-19T16:09:51.105Z,13.83
2018-03-19T16:15:55.635Z,13.91
2018-03-19T16:22:00.173Z,13.83
2018-03-19T16:28:05.755Z,12.47
2018-03-19T16:34:10.263Z,11.80
2018-03-19T16:40:15.684Z,11.60
2018-03-19T16:46:21.047Z,10.35
2018-03-19T16:52:26.397Z,10.83
2018-03-19T16:58:31.256Z,10.68
2018-03-19T17:04:35.814Z,10.26
2018-03-19T17:10:40.340Z,9.85
2018-03-19T17:16:45.709Z,8.10
2018-03-19T17:22:51.300Z,5.84
2018-03-19T17:28:55.999Z,4.29
2018-03-19T17:35:01.255Z,3.45
2018-03-19T17:41:05.741Z,2.79
2018-03-19T17:47:10.279Z,2.35
2018-03-19T17:53:14.788Z,1.84
2018-03-19T17:59:21.389Z,1.42
2018-03-19T18:05:26.042Z,1.01
2018-03-19T18:11:30.595Z,0.80
2018-03-19T18:17:35.545Z,0.41
2018-03-19T18:23:40.068Z,0.10
2018-03-19T18:29:44.749Z,-0.26
2018-03-19T18:35:50.244Z,-0.52
2018-03-19T18:41:55.659Z,-0.61
2018-03-19T18:48:00.380Z,-0.68
2018-03-19T18:54:04.978Z,-0.96
2018-03-19T19:00:09.485Z,-0.95
2018-03-19T19:06:15.072Z,-0.97
2018-03-19T19:25:19.675Z,-1.00
2018-03-19T19:31:24.286Z,-0.78
2018-03-19T19:37:30.465Z,-0.83
2018-03-19T19:43:35.044Z,-1.05
2018-03-19T19:49:40.405Z,-1.10
2018-03-19T19:55:45.111Z,-1.22
2018-03-19T20:01:50.280Z,-1.40
2018-03-19T20:07:54.881Z,-1.49
2018-03-19T20:13:59.537Z,-1.64
2018-03-19T20:20:04.793Z,-1.64
2018-03-19T20:26:09.290Z,-1.73
2018-03-19T20:32:13.988Z,-1.72
2018-03-19T20:38:20.117Z,-1.90
2018-03-19T20:44:24.970Z,-2.00
2018-03-19T20:50:29.594Z,-2.09
2018-03-19T20:56:34.883Z,-2.13
2018-03-19T21:02:40.218Z,-2.20
2018-03-19T21:08:44.745Z,-2.13
2018-03-19T21:14:49.800Z,-2.16
2018-03-19T21:20:54.538Z,-2.31
2018-03-19T21:26:59.855Z,-2.35
2018-03-19T21:33:04.360Z,-2.30
2018-03-19T21:39:09.102Z,-2.45
2018-03-19T21:45:14.413Z,-2.47
2018-03-19T21:51:19.499Z,-2.58
2018-03-19T21:57:25.090Z,-2.63
2018-03-19T22:03:29.583Z,-2.67
2018-03-19T22:09:34.100Z,-2.51
2018-03-19T22:15:38.903Z,-2.66
2018-03-19T22:21:43.395Z,-2.68
2018-03-19T22:27:49.340Z,-2.79
2018-03-19T22:33:54.742Z,-2.85
2018-03-19T22:40:00.248Z,-2.92
2018-03-19T22:46:04.961Z,-2.88
2018-03-19T22:52:09.559Z,-2.95
2018-03-19T22:58:14.205Z,-3.03
2018-03-19T23:04:36.875Z,-2.99
2018-03-19T23:10:41.359Z,-3.19
2018-03-19T23:16:46.399Z,-3.30
2018-03-19T23:22:52.119Z,-3.38
2018-03-19T23:28:57.439Z,-3.48
2018-03-19T23:35:01.961Z,-3.52
2018-03-19T23:41:06.606Z,-3.58
2018-03-19T23:47:11.156Z,-3.62
2018-03-19T23:53:17.069Z,-3.60
2018-03-19T23:59:21.703Z,-3.67
